Time;durP1;ratioP1;P1;durP2;ratioP2;P2;SDS_P1;SDS_P2;PMS_P1;PMS_P2;Temp;Humidity;BMP_temperature;BMP_pressure;BME280_temperature;BME280_humidity;BME280_pressure;Samples;Min_cycle;Max_cycle;Signal;HPM_P1;HPM_P2
2022/05/06 00:02:30;;;;;;;7.43;2.95;;;11.20;98.10;;;;;;5151542;23;20059;-76
2022/05/06 00:04:55;;;;;;;6.28;3.83;;;11.20;98.00;;;;;;4928971;29;20202;-77
2022/05/06 00:07:21;;;;;;;6.88;3.53;;;10.80;98.00;;;;;;4945486;29;20308;-79
2022/05/06 00:09:47;;;;;;;11.23;4.20;;;11.10;98.00;;;;;;4945182;29;20035;-77
2022/05/06 00:12:13;;;;;;;7.03;3.33;;;11.10;98.30;;;;;;4927949;29;20027;-77
2022/05/06 00:14:42;;;;;;;6.93;3.58;;;11.10;98.40;;;;;;4929532;29;20118;-77
2022/05/06 00:17:07;;;;;;;3.47;2.33;;;11.20;98.50;;;;;;4948281;29;20027;-78
2022/05/06 00:19:34;;;;;;;6.97;3.05;;;11.10;98.50;;;;;;4948163;29;20027;-76
2022/05/06 00:22:00;;;;;;;6.82;3.55;;;11.00;98.50;;;;;;4948112;29;20022;-79
2022/05/06 00:24:28;;;;;;;8.75;2.97;;;11.00;98.60;;;;;;4950119;29;20023;-76
2022/05/06 00:26:55;;;;;;;4.53;2.45;;;13.00;99.30;;;;;;4928014;29;20039;-79
2022/05/06 00:29:20;;;;;;;7.57;3.22;;;10.70;98.50;;;;;;4947004;29;20190;-78
2022/05/06 00:31:47;;;;;;;6.03;3.22;;;11.10;98.40;;;;;;4930525;29;20122;-78
2022/05/06 00:34:13;;;;;;;6.57;3.95;;;11.10;98.60;;;;;;4949808;29;20413;-78
2022/05/06 00:36:38;;;;;;;4.38;2.90;;;11.10;98.40;;;;;;4947894;29;20023;-76
2022/05/06 00:39:04;;;;;;;5.13;2.13;;;11.10;98.30;;;;;;4946749;29;20030;-80
2022/05/06 00:41:34;;;;;;;3.65;2.55;;;11.20;98.30;;;;;;4947092;29;20019;-78
2022/05/06 00:44:00;;;;;;;8.00;3.90;;;11.20;98.10;;;;;;4948239;29;20506;-78
2022/05/06 00:46:27;;;;;;;5.43;3.45;;;11.20;97.90;;;;;;4930762;29;20054;-80
2022/05/06 00:48:55;;;;;;;5.60;3.20;;;11.10;97.80;;;;;;4949262;29;20031;-78
2022/05/06 00:51:21;;;;;;;7.03;3.20;;;11.10;98.00;;;;;;4926984;29;20019;-79
2022/05/06 00:53:47;;;;;;;6.53;4.13;;;11.10;97.60;;;;;;4947166;29;20694;-79
2022/05/06 00:56:17;;;;;;;5.10;2.55;;;11.20;97.60;;;;;;4945720;29;20038;-77
2022/05/06 00:58:46;;;;;;;5.57;3.30;;;11.20;97.70;;;;;;4949285;29;20696;-79
2022/05/06 01:01:11;;;;;;;8.35;2.78;;;11.20;97.90;;;;;;4927898;28;20506;-79
2022/05/06 01:03:37;;;;;;;7.38;3.67;;;11.10;98.00;;;;;;4947223;29;20032;-79
2022/05/06 01:06:07;;;;;;;7.20;3.20;;;11.10;98.00;;;;;;4929658;29;20568;-77
2022/05/06 01:08:34;;;;;;;4.30;2.75;;;11.10;98.20;;;;;;4928181;29;20114;-78
2022/05/06 01:11:00;;;;;;;5.38;2.85;;;11.10;98.30;;;;;;4929247;29;20024;-79
2022/05/06 01:13:27;;;;;;;5.68;2.85;;;11.10;98.20;;;;;;4929535;29;20031;-77
2022/05/06 01:15:56;;;;;;;5.53;2.55;;;11.00;98.10;;;;;;4947215;29;20031;-77
2022/05/06 01:18:25;;;;;;;6.55;3.42;;;11.10;98.00;;;;;;4951733;29;20033;-82
2022/05/06 01:20:52;;;;;;;7.78;3.70;;;12.00;98.20;;;;;;4951777;29;20116;-79
2022/05/06 01:26:58;;;;;;;6.13;3.08;;;10.90;97.90;;;;;;5784184;23;20249;-80
2022/05/06 01:30:34;;;;;;;4.10;2.97;;;11.00;98.20;;;;;;4926855;29;20126;-81
2022/05/06 02:34:38;;;;;;;4.60;2.70;;;10.60;98.90;;;;;;4907058;29;20064;-79
2022/05/06 02:37:04;;;;;;;3.63;2.38;;;10.60;98.80;;;;;;4912828;29;20096;-79
2022/05/06 02:39:29;;;;;;;5.45;3.15;;;10.50;98.70;;;;;;4914257;29;20028;-81
2022/05/06 02:41:55;;;;;;;5.93;3.60;;;10.60;98.50;;;;;;4923467;29;20052;-79
2022/05/06 02:44:22;;;;;;;5.78;2.35;;;10.60;98.40;;;;;;4924188;29;20084;-79
2022/05/06 02:46:47;;;;;;;3.35;2.15;;;10.60;98.40;;;;;;4927983;29;20076;-80
2022/05/06 02:49:13;;;;;;;4.28;2.03;;;10.70;98.50;;;;;;4926164;29;20539;-76
2022/05/06 02:51:39;;;;;;;3.80;2.33;;;10.70;98.50;;;;;;4930875;29;20016;-82
2022/05/06 02:54:07;;;;;;;4.10;2.10;;;10.70;98.20;;;;;;4936097;29;20012;-78
2022/05/06 02:57:08;;;;;;;6.57;2.47;;;10.70;98.50;;;;;;4938639;28;20031;-79
2022/05/06 02:59:34;;;;;;;4.45;2.72;;;10.60;98.40;;;;;;4936979;28;20022;-78
2022/05/06 03:02:00;;;;;;;4.85;2.60;;;10.60;98.60;;;;;;4918392;29;20493;-78
2022/05/06 03:04:25;;;;;;;4.60;2.03;;;10.60;98.50;;;;;;4923943;29;20035;-77
2022/05/06 03:06:52;;;;;;;4.07;2.25;;;10.60;98.50;;;;;;4922974;29;20035;-79
2022/05/06 03:09:17;;;;;;;6.78;3.47;;;10.60;98.60;;;;;;4920583;29;20031;-79
2022/05/06 03:11:43;;;;;;;8.82;3.22;;;10.60;98.70;;;;;;4898504;29;20531;-79
2022/05/06 03:14:09;;;;;;;4.13;2.92;;;10.50;99.00;;;;;;4912120;29;20070;-81
2022/05/06 03:16:34;;;;;;;5.43;2.53;;;10.50;98.80;;;;;;4909756;29;20091;-81
2022/05/06 03:19:00;;;;;;;7.07;3.17;;;10.50;99.00;;;;;;4908876;29;20039;-78
2022/05/06 03:21:29;;;;;;;6.07;2.88;;;10.40;99.00;;;;;;4913910;29;20576;-80
2022/05/06 03:23:59;;;;;;;5.93;2.85;;;10.40;98.90;;;;;;4913851;29;20543;-79
2022/05/06 03:26:25;;;;;;;5.88;2.80;;;10.40;98.90;;;;;;4914275;29;20312;-81
2022/05/06 03:28:52;;;;;;;3.00;2.13;;;10.40;98.90;;;;;;4914807;29;20503;-81
2022/05/06 03:31:18;;;;;;;4.35;1.88;;;10.40;98.90;;;;;;4914853;29;20059;-81
2022/05/06 03:33:45;;;;;;;3.95;2.53;;;10.50;98.80;;;;;;4915923;29;20075;-81
2022/05/06 03:36:11;;;;;;;3.05;1.80;;;10.40;98.80;;;;;;4914857;29;20032;-81
2022/05/06 03:38:37;;;;;;;5.32;2.25;;;10.50;98.80;;;;;;4915168;29;20024;-80
2022/05/06 03:41:03;;;;;;;5.00;2.50;;;10.50;98.70;;;;;;4911232;29;20024;-77
2022/05/06 03:43:28;;;;;;;5.10;2.00;;;10.60;98.80;;;;;;4912422;29;20607;-80
2022/05/06 03:45:54;;;;;;;3.75;2.33;;;7.50;98.10;;;;;;4913939;29;20095;-81
2022/05/06 03:48:24;;;;;;;9.60;3.13;;;10.60;98.50;;;;;;4913544;29;20046;-80
2022/05/06 03:53:35;;;;;;;3.90;2.08;;;10.50;98.30;;;;;;4913599;29;20055;-80
2022/05/06 03:56:03;;;;;;;2.90;1.83;;;10.50;98.20;;;;;;4913717;29;20718;-82
2022/05/06 03:58:30;;;;;;;5.65;2.10;;;10.50;98.20;;;;;;4928003;29;20037;-80
2022/05/06 04:00:55;;;;;;;4.10;3.03;;;10.50;98.30;;;;;;4913399;29;20707;-81
2022/05/06 04:03:21;;;;;;;3.28;2.10;;;10.40;98.60;;;;;;4912000;29;20119;-81
2022/05/06 04:05:47;;;;;;;5.53;2.85;;;10.40;98.50;;;;;;4912096;29;20315;-80
2022/05/06 04:08:12;;;;;;;3.20;2.30;;;10.40;98.60;;;;;;4909386;29;20020;-80
2022/05/06 04:10:38;;;;;;;7.13;3.33;;;10.40;98.50;;;;;;4910500;29;20083;-80
2022/05/06 04:13:04;;;;;;;4.00;2.15;;;10.40;98.80;;;;;;4910935;29;20291;-80
2022/05/06 04:15:32;;;;;;;3.53;2.63;;;10.50;98.70;;;;;;4909606;29;20025;-79
2022/05/06 04:17:59;;;;;;;2.90;2.45;;;10.50;98.60;;;;;;4907637;29;20024;-80
2022/05/06 04:25:53;;;;;;;;;;;10.70;98.30;;;;;;4907947;29;20103;-82
2022/05/06 04:28:19;;;;;;;7.90;2.35;;;10.70;98.30;;;;;;4907810;29;20543;-78
2022/05/06 04:30:45;;;;;;;2.28;1.77;;;10.80;98.10;;;;;;4907227;29;20713;-80
2022/05/06 04:33:11;;;;;;;2.70;1.83;;;10.80;97.80;;;;;;4907541;29;20060;-81
2022/05/06 04:35:36;;;;;;;5.55;2.75;;;10.90;97.60;;;;;;4906098;29;20020;-81
2022/05/06 04:38:02;;;;;;;4.72;2.97;;;10.90;97.30;;;;;;4903441;29;20636;-81
2022/05/06 04:40:28;;;;;;;4.32;2.88;;;10.80;97.40;;;;;;4903344;29;20071;-80
2022/05/06 04:42:54;;;;;;;5.63;2.70;;;10.90;97.50;;;;;;4903120;29;20741;-81
2022/05/06 04:45:20;;;;;;;2.95;2.35;;;10.90;97.50;;;;;;4906283;29;20654;-79
2022/05/06 04:47:45;;;;;;;6.32;2.75;;;11.00;97.50;;;;;;4906685;29;20654;-78
2022/05/06 04:50:11;;;;;;;3.30;2.30;;;10.90;97.40;;;;;;4909019;29;20028;-81
2022/05/06 04:52:37;;;;;;;4.15;2.25;;;11.00;97.40;;;;;;4908240;29;20013;-76
2022/05/06 04:55:03;;;;;;;4.57;2.30;;;11.00;97.50;;;;;;4907944;29;20024;-80
2022/05/06 04:57:29;;;;;;;5.18;2.35;;;10.90;97.70;;;;;;4907936;29;20039;-79
2022/05/06 04:59:55;;;;;;;6.80;3.95;;;11.00;97.60;;;;;;4910274;29;20144;-79
2022/05/06 05:02:20;;;;;;;10.13;5.90;;;11.00;97.20;;;;;;4912602;29;20031;-79
2022/05/06 05:04:46;;;;;;;13.80;5.97;;;11.10;97.10;;;;;;4913942;29;20024;-83
2022/05/06 05:07:12;;;;;;;7.80;3.33;;;11.20;97.00;;;;;;4910895;29;20047;-81
2022/05/06 05:09:38;;;;;;;9.60;3.78;;;11.30;96.60;;;;;;4907853;29;20027;-80
2022/05/06 05:12:04;;;;;;;5.57;2.95;;;11.30;96.90;;;;;;4905648;29;20028;-78
2022/05/06 05:14:33;;;;;;;3.30;2.55;;;11.30;96.80;;;;;;4904392;29;20097;-81
2022/05/06 05:16:59;;;;;;;7.18;3.40;;;11.40;96.70;;;;;;4904684;29;20580;-78
2022/05/06 05:19:24;;;;;;;4.65;2.95;;;11.50;96.80;;;;;;4904131;29;20024;-82
2022/05/06 05:21:50;;;;;;;4.47;2.38;;;11.50;96.80;;;;;;4903935;29;20050;-78
2022/05/06 05:24:15;;;;;;;4.50;2.53;;;11.50;96.70;;;;;;4903677;29;20688;-83
2022/05/06 05:26:41;;;;;;;5.47;3.17;;;11.60;96.30;;;;;;4903601;29;20040;-80
2022/05/06 05:29:07;;;;;;;3.53;1.95;;;11.60;96.50;;;;;;4903127;29;20059;-79
2022/05/06 05:31:32;;;;;;;4.10;2.30;;;11.70;96.30;;;;;;4903292;29;20712;-79
2022/05/06 05:33:58;;;;;;;5.22;2.70;;;11.70;96.60;;;;;;4903469;29;20048;-78
2022/05/06 05:36:24;;;;;;;5.13;2.17;;;11.80;96.40;;;;;;4903333;29;20032;-80
2022/05/06 05:38:50;;;;;;;3.42;1.70;;;12.00;95.70;;;;;;4903529;29;20036;-79
2022/05/06 05:41:16;;;;;;;6.30;3.42;;;12.00;95.50;;;;;;4903618;29;20131;-82
2022/05/06 05:49:10;;;;;;;9.20;2.45;;;12.50;94.50;;;;;;4902754;29;20134;-80
2022/05/06 05:51:35;;;;;;;3.88;2.40;;;12.60;94.30;;;;;;4902883;29;20759;-78
2022/05/06 05:54:01;;;;;;;7.18;2.35;;;12.80;94.10;;;;;;4902739;29;20008;-82
2022/05/06 05:56:27;;;;;;;6.93;3.35;;;13.00;94.10;;;;;;4902655;29;20042;-80
2022/05/06 05:58:52;;;;;;;8.65;4.20;;;13.10;94.10;;;;;;4902552;29;20106;-83
2022/05/06 06:01:19;;;;;;;10.18;4.88;;;13.20;94.60;;;;;;4902692;29;20031;-84
2022/05/06 06:03:44;;;;;;;9.35;4.03;;;13.30;94.30;;;;;;4902610;29;20521;-80
2022/05/06 06:06:10;;;;;;;6.15;3.08;;;13.50;93.90;;;;;;4902613;29;20038;-83
2022/05/06 06:08:36;;;;;;;6.55;3.28;;;13.60;93.60;;;;;;4902453;29;20020;-83
2022/05/06 06:11:05;;;;;;;10.20;5.20;;;13.80;93.40;;;;;;4902270;29;20263;-80
2022/05/06 06:13:31;;;;;;;8.48;4.03;;;13.80;92.70;;;;;;4902442;29;20108;-80
2022/05/06 06:15:57;;;;;;;9.27;4.25;;;13.80;92.90;;;;;;4903087;29;20103;-85
2022/05/06 06:18:26;;;;;;;7.95;5.10;;;13.90;92.60;;;;;;4904833;29;20028;-80
2022/05/06 06:20:56;;;;;;;13.48;3.97;;;14.10;92.40;;;;;;4904385;29;20019;-82
2022/05/06 06:23:23;;;;;;;8.35;3.35;;;14.20;92.00;;;;;;4903705;29;20024;-77
2022/05/06 06:25:48;;;;;;;5.50;3.10;;;14.30;91.90;;;;;;4903317;29;20056;-78
2022/05/06 06:28:15;;;;;;;10.00;3.95;;;14.40;91.80;;;;;;4907888;29;20704;-80
2022/05/06 06:30:41;;;;;;;7.35;3.53;;;14.50;91.90;;;;;;4907609;29;20036;-77
2022/05/06 06:33:07;;;;;;;5.38;3.17;;;14.60;91.30;;;;;;4902614;29;20056;-80
2022/05/06 06:35:33;;;;;;;7.30;3.83;;;14.70;91.20;;;;;;4902710;29;20031;-77
2022/05/06 06:38:00;;;;;;;9.70;3.53;;;14.90;90.90;;;;;;4902609;29;20044;-75
2022/05/06 06:40:26;;;;;;;10.57;3.88;;;15.00;90.60;;;;;;4902009;29;20024;-76
2022/05/06 06:42:52;;;;;;;7.28;3.65;;;15.10;90.10;;;;;;4901158;29;20589;-79
2022/05/06 06:45:18;;;;;;;8.52;3.30;;;15.20;90.00;;;;;;4902301;29;20016;-77
2022/05/06 06:47:44;;;;;;;6.57;3.03;;;15.20;89.50;;;;;;4901825;29;20031;-78
2022/05/06 06:50:10;;;;;;;15.60;3.80;;;15.20;89.30;;;;;;4902669;29;20028;-78
2022/05/06 06:52:36;;;;;;;7.28;3.75;;;15.20;88.50;;;;;;4902552;29;20512;-76
2022/05/06 06:55:03;;;;;;;9.13;3.90;;;15.40;88.00;;;;;;4901929;29;20127;-76
2022/05/06 06:57:31;;;;;;;6.10;3.53;;;15.30;87.50;;;;;;4901990;29;20291;-80
2022/05/06 06:59:57;;;;;;;9.25;4.82;;;15.30;88.00;;;;;;4902067;29;20031;-81
2022/05/06 07:02:23;;;;;;;6.25;3.47;;;15.40;87.50;;;;;;4902755;29;20029;-78
2022/05/06 07:04:50;;;;;;;9.27;4.43;;;15.40;87.40;;;;;;4906538;29;20043;-82
2022/05/06 07:12:44;;;;;;;6.85;3.17;;;16.10;86.30;;;;;;4902196;29;20708;-76
2022/05/06 07:15:10;;;;;;;6.80;3.80;;;16.30;84.20;;;;;;4901689;29;20032;-77
2022/05/06 07:17:36;;;;;;;8.10;3.22;;;16.50;83.90;;;;;;4901424;29;20063;-76
2022/05/06 07:20:02;;;;;;;9.40;5.30;;;16.70;84.10;;;;;;4902179;29;20012;-80
2022/05/06 07:22:27;;;;;;;7.55;4.30;;;16.80;81.90;;;;;;4902029;29;20111;-79
2022/05/06 07:24:54;;;;;;;5.05;2.75;;;16.80;82.50;;;;;;4901636;29;20083;-77
2022/05/06 07:27:21;;;;;;;5.28;2.63;;;17.00;81.60;;;;;;4901163;29;20031;-77
2022/05/06 07:29:47;;;;;;;5.50;2.53;;;17.30;80.40;;;;;;4900928;29;20016;-77
2022/05/06 07:32:12;;;;;;;5.32;2.58;;;17.50;78.40;;;;;;4900896;29;20051;-78
2022/05/06 07:34:38;;;;;;;6.40;2.97;;;17.60;77.80;;;;;;4901545;29;20729;-78
2022/05/06 07:37:04;;;;;;;6.15;3.13;;;17.70;76.60;;;;;;4901468;29;20040;-77
2022/05/06 07:39:30;;;;;;;6.25;3.70;;;17.80;76.70;;;;;;4901050;29;20062;-81
2022/05/06 07:41:56;;;;;;;10.38;5.78;;;18.00;74.90;;;;;;4900920;29;20031;-80
2022/05/06 07:44:22;;;;;;;8.70;4.40;;;17.70;77.20;;;;;;4901426;29;20024;-75
2022/05/06 07:46:48;;;;;;;9.38;5.75;;;17.80;77.50;;;;;;4900790;29;20082;-81
2022/05/06 07:49:14;;;;;;;9.48;5.05;;;18.00;77.20;;;;;;4901016;29;20536;-77
2022/05/06 07:51:39;;;;;;;11.40;5.90;;;17.80;76.60;;;;;;4901242;29;20721;-77
2022/05/06 07:54:05;;;;;;;11.90;6.75;;;17.50;78.00;;;;;;4900954;29;20028;-80
2022/05/06 07:56:31;;;;;;;11.40;7.18;;;17.40;79.50;;;;;;4900483;29;20667;-77
2022/05/06 07:58:57;;;;;;;11.40;6.93;;;17.20;80.30;;;;;;4901097;29;20064;-80
2022/05/06 08:04:32;;;;;;;12.10;6.07;;;17.10;80.70;;;;;;4901051;29;20720;-79
2022/05/06 08:06:53;;;;;;;12.80;5.50;;;17.40;79.70;;;;;;4900972;29;20049;-77
2022/05/06 08:09:22;;;;;;;11.57;5.88;;;17.30;79.70;;;;;;4901032;29;20016;-77
2022/05/06 08:11:48;;;;;;;11.80;5.78;;;17.40;79.70;;;;;;4900821;29;20767;-80
2022/05/06 08:14:16;;;;;;;10.25;5.40;;;17.50;80.10;;;;;;4900948;29;20032;-78
2022/05/06 08:16:45;;;;;;;12.15;4.53;;;17.40;80.70;;;;;;4900917;29;20066;-80
2022/05/06 08:19:13;;;;;;;11.18;5.57;;;17.50;79.40;;;;;;4901221;29;20523;-77
2022/05/06 08:21:39;;;;;;;12.32;4.88;;;17.60;79.10;;;;;;4919603;29;20029;-78
2022/05/06 08:24:05;;;;;;;10.70;4.90;;;17.60;80.00;;;;;;4905133;29;20585;-77
2022/05/06 08:26:31;;;;;;;10.95;4.63;;;17.90;78.50;;;;;;4887853;29;20040;-75
2022/05/06 08:28:57;;;;;;;11.43;5.35;;;18.10;78.40;;;;;;4904694;29;20115;-78
2022/05/06 08:31:23;;;;;;;10.15;5.13;;;18.30;76.70;;;;;;4904153;29;20112;-81
2022/05/06 08:33:48;;;;;;;11.18;4.85;;;18.40;77.40;;;;;;4903843;29;20048;-79
2022/05/06 08:36:14;;;;;;;10.00;4.70;;;18.70;76.70;;;;;;4904072;29;20307;-78
2022/05/06 08:38:40;;;;;;;8.93;5.25;;;18.80;74.30;;;;;;4904049;29;20024;-76
2022/05/06 08:41:05;;;;;;;11.35;5.60;;;18.80;73.70;;;;;;4904661;29;20044;-83
2022/05/06 08:43:32;;;;;;;12.02;4.82;;;18.70;73.20;;;;;;4904915;29;20027;-77
2022/05/06 08:51:34;;;;;;;11.77;5.03;;;19.20;72.50;;;;;;4922979;29;20644;-79
2022/05/06 08:54:01;;;;;;;7.53;3.13;;;19.30;71.10;;;;;;4922588;29;20023;-81
2022/05/06 08:56:27;;;;;;;6.38;3.10;;;19.20;69.80;;;;;;4923238;29;20086;-80
2022/05/06 08:58:54;;;;;;;7.00;3.03;;;19.40;69.20;;;;;;4922886;29;20031;-78
2022/05/06 09:01:23;;;;;;;9.77;3.50;;;19.40;68.90;;;;;;4922475;29;20028;-79
2022/05/06 09:03:49;;;;;;;5.63;2.80;;;19.50;68.30;;;;;;4922838;29;20035;-78
2022/05/06 09:06:24;;;;;;;7.30;3.60;;;19.70;67.10;;;;;;4922942;29;20027;-82
2022/05/06 09:08:52;;;;;;;8.32;3.38;;;19.60;68.10;;;;;;4921222;29;20684;-80
2022/05/06 09:12:40;;;;;;;9.68;4.57;;;18.90;67.10;;;;;;4922402;29;20056;-82
2022/05/06 09:14:07;;;;;;;7.13;3.30;;;19.70;68.00;;;;;;4922886;29;20584;-77
2022/05/06 09:16:44;;;;;;;6.05;2.95;;;19.80;67.20;;;;;;4922568;29;20023;-84
2022/05/06 09:19:19;;;;;;;7.05;3.25;;;19.90;66.70;;;;;;4921661;29;20042;-81
2022/05/06 09:22:14;;;;;;;8.05;3.05;;;20.00;66.40;;;;;;4921669;29;20026;-81
2022/05/06 09:24:42;;;;;;;4.53;2.33;;;20.20;66.50;;;;;;4921852;29;20024;-81
2022/05/06 09:27:12;;;;;;;8.85;3.15;;;20.40;65.70;;;;;;4922872;29;20103;-79
2022/05/06 09:29:44;;;;;;;6.70;2.75;;;20.50;65.60;;;;;;4922047;29;20024;-81
2022/05/06 09:32:20;;;;;;;8.90;3.03;;;20.80;64.00;;;;;;4922170;29;20031;-80
2022/05/06 09:34:51;;;;;;;7.60;3.05;;;20.80;63.80;;;;;;4921828;29;20838;-83
2022/05/06 09:37:38;;;;;;;6.43;3.03;;;20.90;63.40;;;;;;4920922;29;20032;-81
2022/05/06 09:40:08;;;;;;;8.07;3.38;;;21.00;63.10;;;;;;4921589;29;20031;-80
2022/05/06 09:42:58;;;;;;;8.88;2.75;;;21.20;62.90;;;;;;4921977;29;20024;-81
2022/05/06 09:45:37;;;;;;;7.18;3.50;;;21.20;62.10;;;;;;4867952;29;20164;-79
2022/05/06 09:48:04;;;;;;;8.20;3.50;;;21.20;60.70;;;;;;4880766;29;20037;-79
2022/05/06 09:50:35;;;;;;;10.20;3.42;;;21.20;60.50;;;;;;4880836;29;20041;-82
2022/05/06 09:53:02;;;;;;;9.15;3.30;;;21.20;60.80;;;;;;4880778;29;20021;-81
2022/05/06 09:55:31;;;;;;;8.35;3.33;;;21.20;61.40;;;;;;4874327;29;20036;-81
2022/05/06 09:57:59;;;;;;;9.07;3.50;;;21.10;61.10;;;;;;4863563;29;20068;-82
2022/05/06 10:00:26;;;;;;;8.00;2.97;;;20.80;62.00;;;;;;4862962;29;20799;-76
2022/05/06 10:02:52;;;;;;;6.70;2.35;;;20.90;63.90;;;;;;4862883;29;20049;-81
2022/05/06 10:05:18;;;;;;;8.35;2.97;;;21.20;61.50;;;;;;4862673;29;20036;-78
2022/05/06 10:07:46;;;;;;;6.07;2.63;;;21.40;61.00;;;;;;4862263;29;20037;-78
2022/05/06 10:10:21;;;;;;;8.18;3.08;;;21.60;60.60;;;;;;4861890;29;20045;-73
2022/05/06 10:12:54;;;;;;;6.55;2.80;;;21.70;60.00;;;;;;4862341;29;20044;-75
2022/05/06 10:15:21;;;;;;;10.45;2.72;;;21.80;58.70;;;;;;4862234;29;20108;-78
2022/05/06 10:17:51;;;;;;;6.35;3.13;;;21.90;58.80;;;;;;4861559;29;20248;-80
2022/05/06 10:20:45;;;;;;;6.13;2.70;;;21.80;59.30;;;;;;4862124;29;20608;-82
2022/05/06 10:23:12;;;;;;;11.30;3.22;;;21.80;59.20;;;;;;4894219;29;20235;-78
2022/05/06 10:25:45;;;;;;;6.20;3.03;;;21.60;58.20;;;;;;4902593;29;20104;-76
2022/05/06 10:34:12;;;;;;;10.35;2.97;;;20.70;60.60;;;;;;4901867;29;20606;-78
2022/05/06 10:36:41;;;;;;;8.38;3.92;;;20.60;66.40;;;;;;4902177;29;20051;-78
2022/05/06 10:39:24;;;;;;;11.18;4.13;;;20.50;65.30;;;;;;4902187;29;20040;-76
2022/05/06 10:42:11;;;;;;;13.53;4.70;;;20.40;65.60;;;;;;4901203;29;20624;-79
2022/05/06 10:44:42;;;;;;;10.65;5.30;;;20.10;66.80;;;;;;4916074;29;21000;-74
2022/05/06 10:47:16;;;;;;;11.93;5.28;;;23.60;70.50;;;;;;4901942;29;20028;-75
2022/05/06 10:49:46;;;;;;;11.30;5.00;;;19.80;68.00;;;;;;4902001;29;20099;-75
2022/05/06 10:52:18;;;;;;;10.10;5.20;;;19.60;69.00;;;;;;4901716;29;20272;-77
2022/05/06 10:54:48;;;;;;;17.33;5.82;;;19.30;69.80;;;;;;4901942;29;20044;-76
2022/05/06 10:57:15;;;;;;;12.35;4.55;;;19.40;69.60;;;;;;4901862;29;20032;-78
2022/05/06 11:00:11;;;;;;;8.18;4.35;;;19.30;70.00;;;;;;4902119;29;20020;-76
2022/05/06 11:02:38;;;;;;;15.50;5.10;;;19.10;70.30;;;;;;4843884;29;20045;-77
2022/05/06 11:05:06;;;;;;;10.18;4.28;;;18.90;71.00;;;;;;4843204;29;20113;-75
2022/05/06 11:07:34;;;;;;;7.60;4.72;;;19.00;71.30;;;;;;4842424;29;20049;-80
2022/05/06 11:10:13;;;;;;;11.25;4.03;;;19.10;81.40;;;;;;4842734;29;20026;-77
2022/05/06 11:12:45;;;;;;;7.63;3.33;;;19.20;69.40;;;;;;4842797;29;20057;-75
2022/05/06 11:15:14;;;;;;;7.35;3.67;;;20.80;70.90;;;;;;4843274;29;20056;-79
2022/05/06 11:17:41;;;;;;;9.63;4.63;;;19.20;78.60;;;;;;4843313;29;20044;-80
2022/05/06 11:20:18;;;;;;;8.43;3.63;;;18.50;73.90;;;;;;4843165;29;20044;-77
2022/05/06 11:22:51;;;;;;;8.50;3.85;;;19.40;69.60;;;;;;4843235;29;20262;-76
2022/05/06 11:25:17;;;;;;;7.03;2.80;;;19.60;75.70;;;;;;4842783;29;20033;-75
2022/05/06 11:27:42;;;;;;;7.95;3.15;;;19.70;69.50;;;;;;4842708;29;20067;-75
2022/05/06 11:30:16;;;;;;;8.10;3.42;;;19.80;65.70;;;;;;4842689;29;20056;-77
2022/05/06 11:32:47;;;;;;;6.85;3.13;;;20.00;65.90;;;;;;4842250;29;20061;-74
2022/05/06 11:35:19;;;;;;;8.77;3.00;;;20.10;64.60;;;;;;4860718;29;20059;-74
2022/05/06 11:37:45;;;;;;;14.05;4.18;;;20.40;65.20;;;;;;4861089;29;20037;-77
2022/05/06 11:42:52;;;;;;;6.38;2.65;;;20.60;60.40;;;;;;4901854;29;20055;-77
2022/05/06 11:48:10;;;;;;;6.18;2.60;;;20.60;60.10;;;;;;4901716;29;20088;-75
2022/05/06 11:50:38;;;;;;;6.88;3.00;;;20.60;59.70;;;;;;4901493;29;20035;-75
2022/05/06 11:53:10;;;;;;;6.45;2.78;;;20.60;59.60;;;;;;4902703;29;20035;-76
2022/05/06 11:55:42;;;;;;;6.55;2.10;;;20.70;58.90;;;;;;4904443;29;20031;-80
2022/05/06 11:58:10;;;;;;;5.95;2.30;;;20.80;59.20;;;;;;4903370;29;20040;-79
2022/05/06 12:00:36;;;;;;;5.07;2.60;;;21.00;58.90;;;;;;4905434;29;20021;-79
2022/05/06 12:03:04;;;;;;;6.82;2.63;;;21.20;57.50;;;;;;4905050;29;20680;-75
2022/05/06 12:05:31;;;;;;;6.93;2.70;;;21.30;57.20;;;;;;4905536;29;20060;-77
2022/05/06 12:07:56;;;;;;;9.93;3.65;;;21.50;57.00;;;;;;4905468;29;20230;-76
2022/05/06 12:10:27;;;;;;;8.27;2.97;;;21.50;56.80;;;;;;4903503;29;20550;-74
2022/05/06 12:12:56;;;;;;;6.60;3.50;;;21.60;57.90;;;;;;4904780;29;20027;-79
2022/05/06 12:15:29;;;;;;;9.27;3.38;;;21.90;57.70;;;;;;4903313;29;20016;-77
2022/05/06 12:18:05;;;;;;;9.02;3.30;;;22.00;57.40;;;;;;4904364;29;20127;-76
2022/05/06 12:20:33;;;;;;;9.77;3.08;;;22.00;57.60;;;;;;4904735;29;20662;-79
2022/05/06 12:22:59;;;;;;;7.60;3.05;;;22.10;57.50;;;;;;4904869;29;20028;-77
2022/05/06 12:25:26;;;;;;;5.82;2.75;;;22.30;57.60;;;;;;4904946;29;20036;-77
2022/05/06 12:28:13;;;;;;;6.05;3.00;;;22.10;57.50;;;;;;4904995;29;20039;-77
2022/05/06 12:30:39;;;;;;;9.40;2.88;;;22.00;58.60;;;;;;4904981;29;20636;-77
2022/05/06 12:33:09;;;;;;;6.60;2.67;;;21.90;57.80;;;;;;4904992;29;20075;-75
2022/05/06 12:35:55;;;;;;;6.80;2.72;;;21.80;57.80;;;;;;4904962;29;20032;-76
2022/05/06 12:38:21;;;;;;;5.85;2.13;;;21.70;58.20;;;;;;4904782;29;20067;-74
2022/05/06 12:40:49;;;;;;;5.85;2.65;;;21.80;59.00;;;;;;4904778;29;20099;-74
2022/05/06 12:43:15;;;;;;;4.50;2.08;;;21.60;59.80;;;;;;4904618;29;20036;-80
2022/05/06 12:45:52;;;;;;;7.82;2.83;;;21.50;60.60;;;;;;4904227;29;20035;-79
2022/05/06 12:51:03;;;;;;;5.57;2.63;;;21.30;61.80;;;;;;4904840;29;20763;-74
2022/05/06 12:53:29;;;;;;;7.60;3.35;;;21.10;62.50;;;;;;4904688;29;20036;-76
2022/05/06 12:55:55;;;;;;;5.15;2.63;;;21.10;62.70;;;;;;4904395;29;20507;-78
2022/05/06 12:58:27;;;;;;;5.57;2.42;;;21.00;62.70;;;;;;4904377;29;20040;-78
2022/05/06 13:00:56;;;;;;;5.30;2.53;;;20.90;63.10;;;;;;4904459;29;20017;-77
2022/05/06 13:03:22;;;;;;;9.25;2.97;;;20.70;62.90;;;;;;4904385;29;20043;-75
2022/05/06 13:05:48;;;;;;;6.38;2.42;;;20.60;63.10;;;;;;4902317;29;20024;-78
2022/05/06 13:08:16;;;;;;;5.82;2.60;;;20.30;63.20;;;;;;4904094;29;20634;-78
2022/05/06 13:10:42;;;;;;;4.32;2.08;;;20.20;63.70;;;;;;4903614;29;20107;-76
2022/05/06 13:13:08;;;;;;;5.40;2.05;;;20.10;63.10;;;;;;4904119;29;20081;-80
2022/05/06 13:15:34;;;;;;;5.35;1.80;;;20.10;62.90;;;;;;4903921;29;20500;-76
2022/05/06 13:18:00;;;;;;;5.07;1.98;;;20.00;63.70;;;;;;4887342;29;20067;-78
2022/05/06 13:20:25;;;;;;;5.32;2.38;;;19.90;63.80;;;;;;4886868;29;20067;-78
2022/05/06 13:22:51;;;;;;;6.47;2.28;;;19.80;62.70;;;;;;4903700;29;20028;-78
2022/05/06 13:25:17;;;;;;;5.68;2.13;;;19.70;63.70;;;;;;4903670;29;20036;-73
2022/05/06 13:27:43;;;;;;;5.07;2.20;;;19.60;64.70;;;;;;4903381;29;20035;-77
2022/05/06 13:30:10;;;;;;;5.20;2.22;;;19.50;64.60;;;;;;4903841;29;20025;-75
2022/05/06 13:32:35;;;;;;;8.75;3.13;;;19.40;64.10;;;;;;4903405;29;20052;-75
2022/05/06 13:35:01;;;;;;;6.60;2.55;;;19.30;64.70;;;;;;4904030;29;20566;-78
2022/05/06 13:37:27;;;;;;;5.13;2.20;;;19.20;64.60;;;;;;4903241;29;20043;-77
2022/05/06 13:39:54;;;;;;;6.65;2.15;;;19.10;64.70;;;;;;4904920;29;20024;-79
2022/05/06 13:42:19;;;;;;;5.45;2.17;;;19.00;64.80;;;;;;4903617;29;20523;-75
2022/05/06 13:44:46;;;;;;;6.22;2.63;;;19.00;65.10;;;;;;4918400;29;20107;-81
2022/05/06 13:47:13;;;;;;;5.22;1.90;;;18.90;66.20;;;;;;4903781;29;20141;-78
2022/05/06 13:49:41;;;;;;;4.07;1.80;;;18.90;66.20;;;;;;4905319;29;20036;-84
2022/05/06 13:52:06;;;;;;;4.38;1.52;;;18.90;66.50;;;;;;4904559;29;20043;-76
2022/05/06 13:54:32;;;;;;;6.38;1.90;;;18.80;65.70;;;;;;4903608;29;20154;-79
2022/05/06 13:59:42;;;;;;;3.95;1.80;;;18.60;66.60;;;;;;4904376;29;20688;-81
2022/05/06 14:02:08;;;;;;;3.65;1.77;;;18.60;66.30;;;;;;4903812;29;20044;-87
2022/05/06 14:04:35;;;;;;;3.80;1.73;;;18.60;66.40;;;;;;4904334;29;20024;-78
2022/05/06 14:07:01;;;;;;;2.92;1.70;;;;;;;;;;4903072;29;20020;-84
2022/05/06 14:09:27;;;;;;;7.30;1.45;;;18.70;64.70;;;;;;4914309;29;20032;-87
2022/05/06 14:11:52;;;;;;;4.03;1.58;;;18.80;65.50;;;;;;4923400;29;20023;-77
2022/05/06 14:14:20;;;;;;;3.25;1.17;;;18.70;65.70;;;;;;4922535;29;20501;-76
2022/05/06 14:16:45;;;;;;;4.65;1.90;;;18.70;66.00;;;;;;4920892;29;20284;-80
2022/05/06 14:19:11;;;;;;;4.07;2.00;;;18.60;66.10;;;;;;4920827;29;20026;-76
2022/05/06 14:21:37;;;;;;;3.63;1.92;;;18.60;68.50;;;;;;4921835;29;20031;-80
2022/05/06 14:24:03;;;;;;;5.28;1.80;;;18.50;70.30;;;;;;4904865;29;20115;-80
2022/05/06 14:26:30;;;;;;;3.95;1.80;;;18.40;72.60;;;;;;4909168;29;20079;-76
2022/05/06 14:28:56;;;;;;;4.65;1.50;;;18.30;72.70;;;;;;4909749;29;20452;-84
2022/05/06 14:31:22;;;;;;;2.28;1.65;;;18.10;73.90;;;;;;4892020;29;20690;-80
2022/05/06 14:33:48;;;;;;;10.13;2.17;;;;;;;;;;4907992;29;20123;-76
2022/05/06 14:36:19;;;;;;;5.18;2.22;;;17.80;76.40;;;;;;4908292;29;20028;-76
2022/05/06 14:38:51;;;;;;;2.78;1.20;;;17.80;79.10;;;;;;4911111;29;20123;-75
2022/05/06 14:41:16;;;;;;;4.93;1.85;;;17.60;79.90;;;;;;4910157;29;20028;-75